createdAt,value
2022-11-15T00:02:21.074Z,5.96
2022-11-15T00:07:53.386Z,5.83
2022-11-15T00:12:47.594Z,6.06
2022-11-15T00:17:50.652Z,6.16
2022-11-15T00:22:55.564Z,6.21
2022-11-15T00:27:58.934Z,4.72
2022-11-15T00:33:03.879Z,4.87
2022-11-15T00:38:07.764Z,5.44
2022-11-15T00:43:10.582Z,4.52
2022-11-15T00:48:13.101Z,3.86
2022-11-15T00:53:17.860Z,4.23
2022-11-15T00:58:20.768Z,4.71
2022-11-15T01:03:23.446Z,5.46
2022-11-15T01:08:27.407Z,5.59
2022-11-15T01:13:33.074Z,5.88
2022-11-15T01:18:35.881Z,5.79
2022-11-15T01:23:40.261Z,6.07
2022-11-15T01:28:43.969Z,6.02
2022-11-15T01:33:47.419Z,5.85
2022-11-15T01:38:56.176Z,5.85
2022-11-15T01:44:19.939Z,5.14
2022-11-15T01:49:25.642Z,5.43
2022-11-15T01:54:29.948Z,5.85
2022-11-15T01:59:33.034Z,5.90
2022-11-15T02:04:40.025Z,6.10
2022-11-15T02:09:45.279Z,4.67
2022-11-15T02:14:52.120Z,4.94
2022-11-15T02:20:38.438Z,4.19
2022-11-15T02:25:55.929Z,4.63
2022-11-15T02:31:06.924Z,5.34
2022-11-15T02:36:16.897Z,5.68
2022-11-15T02:41:26.188Z,5.99
2022-11-15T02:46:53.958Z,5.82
2022-11-15T02:51:57.816Z,6.15
2022-11-15T02:57:03.427Z,6.10
2022-11-15T03:02:20.192Z,6.03
2022-11-15T03:07:31.501Z,6.04
2022-11-15T03:12:42.827Z,6.18
2022-11-15T03:17:52.863Z,5.89
2022-11-15T03:22:57.986Z,6.11
2022-11-15T03:28:05.911Z,6.37
2022-11-15T03:33:11.754Z,6.15
2022-11-15T03:38:21.713Z,6.09
2022-11-15T03:43:32.851Z,5.67
2022-11-15T03:48:42.531Z,5.32
2022-11-15T03:53:45.125Z,5.84
2022-11-15T03:58:47.664Z,6.09
2022-11-15T04:03:51.658Z,6.04
2022-11-15T04:08:54.173Z,5.92
2022-11-15T04:13:56.693Z,6.04
2022-11-15T04:19:18.341Z,6.13
2022-11-15T04:24:20.959Z,6.04
2022-11-15T04:29:38.528Z,5.32
2022-11-15T04:34:42.408Z,5.41
2022-11-15T04:39:45.436Z,5.96
2022-11-15T04:44:48.109Z,5.64
2022-11-15T04:49:52.000Z,5.80
2022-11-15T04:54:54.676Z,5.93
2022-11-15T04:59:57.245Z,5.97
2022-11-15T05:05:01.132Z,5.93
2022-11-15T05:10:03.761Z,5.69
2022-11-15T05:15:07.331Z,5.40
2022-11-15T05:20:12.418Z,5.51
2022-11-15T05:25:14.959Z,5.55
2022-11-15T05:30:18.276Z,5.63
2022-11-15T05:35:31.871Z,5.28
2022-11-15T05:40:36.433Z,5.72
2022-11-15T05:45:38.956Z,4.82
2022-11-15T05:50:46.271Z,3.42
2022-11-15T05:55:49.569Z,4.05
2022-11-15T06:00:52.209Z,4.54
2022-11-15T06:05:56.296Z,5.07
2022-11-15T06:10:58.824Z,5.36
2022-11-15T06:16:01.890Z,5.45
2022-11-15T06:21:06.917Z,3.94
2022-11-15T06:26:09.456Z,4.70
2022-11-15T06:31:13.259Z,4.85
2022-11-15T06:36:18.262Z,5.33
2022-11-15T06:41:21.978Z,5.00
2022-11-15T06:46:24.721Z,5.16
2022-11-15T06:51:28.727Z,5.49
2022-11-15T06:56:31.373Z,5.65
2022-11-15T07:01:33.942Z,5.79
2022-11-15T07:06:37.901Z,6.15
2022-11-15T07:11:40.790Z,6.10
2022-11-15T07:16:43.360Z,6.30
2022-11-15T07:21:47.622Z,6.25
2022-11-15T07:26:50.283Z,5.80
2022-11-15T07:31:53.052Z,6.24
2022-11-15T07:37:06.070Z,6.36
2022-11-15T07:42:26.361Z,6.69
2022-11-15T07:47:30.437Z,6.81
2022-11-15T07:52:34.433Z,7.06
2022-11-15T07:57:37.359Z,6.37
2022-11-15T08:02:40.222Z,6.86
2022-11-15T08:07:44.310Z,6.38
2022-11-15T08:12:46.873Z,7.10
2022-11-15T08:17:51.048Z,7.53
2022-11-15T08:22:57.650Z,7.73
2022-11-15T08:28:01.886Z,7.66
2022-11-15T08:33:05.068Z,8.04
2022-11-15T08:38:09.030Z,7.98
2022-11-15T08:43:11.584Z,8.23
2022-11-15T08:48:14.138Z,8.44
2022-11-15T08:53:18.076Z,8.95
2022-11-15T08:58:20.694Z,9.38
2022-11-15T09:03:23.301Z,9.53
2022-11-15T09:08:48.192Z,9.84
2022-11-15T09:13:52.615Z,10.06
2022-11-15T09:18:55.697Z,10.19
2022-11-15T09:23:59.928Z,10.57
2022-11-15T09:29:03.219Z,10.63
2022-11-15T09:34:05.778Z,10.95
2022-11-15T09:39:10.375Z,11.69
2022-11-15T09:44:30.854Z,11.88
2022-11-15T09:49:34.661Z,12.84
2022-11-15T09:54:56.431Z,13.66
2022-11-15T10:05:43.263Z,18.49
2022-11-15T10:11:00.600Z,19.50
2022-11-15T10:16:24.934Z,20.59
2022-11-15T10:21:39.840Z,25.11
2022-11-15T10:26:49.690Z,24.31
2022-11-15T10:31:52.395Z,23.50
2022-11-15T10:36:59.021Z,19.87
2022-11-15T10:42:18.382Z,19.11
2022-11-15T10:47:32.422Z,17.02
2022-11-15T10:52:38.688Z,16.27
2022-11-15T10:57:52.247Z,15.78
2022-11-15T11:03:00.588Z,19.52
2022-11-15T11:08:05.995Z,22.55
2022-11-15T11:13:17.259Z,23.64
2022-11-15T11:18:25.889Z,27.44
2022-11-15T11:23:44.109Z,24.93
2022-11-15T11:28:53.845Z,27.37
2022-11-15T11:34:06.369Z,27.31
2022-11-15T11:39:21.143Z,23.47
2022-11-15T11:44:34.666Z,28.03
2022-11-15T11:49:44.227Z,31.24
2022-11-15T11:54:57.055Z,27.29
2022-11-15T12:00:06.197Z,25.87
2022-11-15T12:05:15.506Z,24.55
2022-11-15T12:10:24.260Z,26.21
2022-11-15T12:15:32.262Z,24.08
2022-11-15T12:20:38.598Z,25.50
2022-11-15T12:25:47.753Z,26.24
2022-11-15T12:30:56.761Z,26.82
2022-11-15T12:36:01.337Z,25.66
2022-11-15T12:41:20.031Z,28.32
2022-11-15T12:46:46.734Z,29.54
2022-11-15T12:52:08.648Z,28.77
2022-11-15T12:57:41.471Z,30.80
2022-11-15T13:02:46.251Z,29.04
2022-11-15T13:08:00.220Z,29.58
2022-11-15T13:13:04.459Z,29.80
2022-11-15T13:18:35.888Z,28.74
2022-11-15T13:23:38.727Z,28.23
2022-11-15T13:28:46.643Z,25.96
2022-11-15T13:33:50.885Z,27.65
2022-11-15T13:38:59.709Z,25.14
2022-11-15T13:44:03.998Z,22.23
2022-11-15T13:49:12.878Z,20.89
2022-11-15T13:54:29.510Z,20.11
2022-11-15T13:59:35.350Z,19.50
2022-11-15T14:04:41.474Z,18.52
2022-11-15T14:09:46.220Z,18.61
2022-11-15T14:14:49.276Z,18.55
2022-11-15T14:19:53.465Z,18.51
2022-11-15T14:25:19.801Z,17.87
2022-11-15T14:30:23.667Z,17.05
2022-11-15T14:35:27.614Z,17.45
2022-11-15T14:40:30.576Z,16.78
2022-11-15T14:45:33.491Z,16.78
2022-11-15T14:50:38.192Z,16.16
2022-11-15T14:55:40.914Z,15.70
2022-11-15T15:00:43.949Z,15.11
2022-11-15T15:05:48.955Z,14.93
2022-11-15T15:10:51.482Z,15.04
2022-11-15T15:15:54.656Z,14.47
2022-11-15T15:21:04.009Z,14.41
2022-11-15T15:26:06.583Z,14.02
2022-11-15T15:31:10.434Z,13.34
2022-11-15T15:36:15.764Z,13.03
2022-11-15T15:41:19.066Z,10.96
2022-11-15T15:46:22.246Z,10.37
2022-11-15T15:51:26.322Z,10.12
2022-11-15T15:56:29.153Z,11.37
2022-11-15T16:01:31.887Z,11.14
2022-11-15T16:06:43.230Z,9.77
2022-11-15T16:11:48.030Z,10.78
2022-11-15T16:16:50.663Z,11.01
2022-11-15T16:21:54.585Z,9.30
2022-11-15T16:26:57.185Z,10.90
2022-11-15T16:31:59.800Z,11.09
2022-11-15T16:37:04.037Z,11.30
2022-11-15T16:42:06.758Z,10.26
2022-11-15T16:47:18.513Z,9.33
2022-11-15T16:52:22.421Z,9.03
2022-11-15T16:57:26.113Z,10.18
2022-11-15T17:02:28.813Z,9.95
2022-11-15T17:07:32.793Z,10.28
2022-11-15T17:12:36.481Z,10.28
2022-11-15T17:17:39.035Z,10.12
2022-11-15T17:22:43.042Z,10.47
2022-11-15T17:27:45.672Z,10.19
2022-11-15T17:32:49.725Z,10.16
2022-11-15T17:37:53.645Z,10.42
2022-11-15T17:42:57.395Z,10.46
2022-11-15T17:48:00.321Z,8.75
2022-11-15T17:53:04.250Z,7.83
2022-11-15T17:58:06.840Z,7.96
2022-11-15T18:03:09.463Z,8.58
2022-11-15T18:08:17.615Z,9.50
2022-11-15T18:13:21.271Z,8.94
2022-11-15T18:18:23.825Z,9.48
2022-11-15T18:23:27.839Z,9.12
2022-11-15T18:28:33.129Z,9.54
2022-11-15T18:33:36.192Z,9.39
2022-11-15T18:38:41.326Z,8.47
2022-11-15T18:43:45.381Z,9.29
2022-11-15T18:48:50.438Z,9.79
2022-11-15T18:53:55.598Z,9.77
2022-11-15T18:59:00.038Z,9.21
2022-11-15T19:04:06.573Z,8.54
2022-11-15T19:09:11.829Z,8.35
2022-11-15T19:14:16.233Z,8.80
2022-11-15T19:19:20.922Z,9.55
2022-11-15T19:24:25.029Z,9.93
2022-11-15T19:29:28.948Z,9.58
2022-11-15T19:34:31.690Z,9.54
2022-11-15T19:39:40.939Z,9.76
2022-11-15T19:44:43.877Z,9.29
2022-11-15T19:49:47.516Z,8.91
2022-11-15T19:54:51.482Z,8.22
2022-11-15T19:59:54.055Z,8.95
2022-11-15T20:04:56.641Z,9.77
2022-11-15T20:10:01.219Z,9.89
2022-11-15T20:15:03.652Z,9.45
2022-11-15T20:20:07.431Z,9.56
2022-11-15T20:25:12.615Z,9.94
2022-11-15T20:30:15.511Z,9.85
2022-11-15T20:35:18.191Z,10.25
2022-11-15T20:40:22.251Z,10.32
2022-11-15T20:45:25.058Z,10.17
2022-11-15T20:50:42.211Z,10.23
2022-11-15T20:55:48.921Z,10.27
2022-11-15T21:00:51.662Z,8.25
2022-11-15T21:05:55.269Z,8.50
2022-11-15T21:11:16.992Z,8.85
2022-11-15T21:16:19.610Z,9.39
2022-11-15T21:21:22.434Z,9.54
2022-11-15T21:26:26.422Z,9.38
2022-11-15T21:31:29.225Z,8.43
2022-11-15T21:36:32.016Z,8.05
2022-11-15T21:41:36.384Z,8.83
2022-11-15T21:46:39.154Z,9.17
2022-11-15T21:51:42.224Z,9.27
2022-11-15T21:56:46.347Z,9.49
2022-11-15T22:02:06.767Z,8.33
2022-11-15T22:07:09.391Z,8.45
2022-11-15T22:12:13.831Z,7.89
2022-11-15T22:17:16.689Z,8.12
2022-11-15T22:22:19.362Z,8.73
2022-11-15T22:27:23.325Z,8.96
2022-11-15T22:32:25.963Z,8.76
2022-11-15T22:37:28.605Z,8.95
2022-11-15T22:42:34.473Z,9.27
2022-11-15T22:47:37.243Z,9.28
2022-11-15T22:52:39.972Z,9.27
2022-11-15T22:57:44.223Z,9.54
2022-11-15T23:02:49.581Z,9.50
2022-11-15T23:07:55.841Z,9.48
2022-11-15T23:13:17.509Z,8.54
2022-11-15T23:18:20.683Z,9.39
2022-11-15T23:23:23.422Z,9.37
2022-11-15T23:28:27.368Z,9.51
2022-11-15T23:33:47.457Z,9.36
2022-11-15T23:38:50.105Z,9.35
2022-11-15T23:43:54.300Z,9.05
2022-11-15T23:48:57.177Z,9.32
2022-11-15T23:53:59.998Z,9.44
2022-11-15T23:59:04.445Z,9.57
